createdAt,value
2024-03-02T00:00:52.773Z,7.80
2024-03-02T00:03:20.498Z,7.87
2024-03-02T00:05:53.080Z,7.88
2024-03-02T00:08:26.270Z,7.77
2024-03-02T00:10:59.944Z,7.74
2024-03-02T00:13:27.454Z,7.59
2024-03-02T00:15:56.431Z,7.77
2024-03-02T00:18:32.603Z,7.73
2024-03-02T00:21:00.981Z,7.57
2024-03-02T00:23:32.605Z,7.67
2024-03-02T00:26:01.119Z,7.71
2024-03-02T00:28:36.302Z,7.60
2024-03-02T00:31:06.383Z,7.61
2024-03-02T00:33:36.042Z,7.56
2024-03-02T00:36:05.724Z,7.67
2024-03-02T00:38:32.720Z,7.62
2024-03-02T00:41:09.824Z,7.54
2024-03-02T00:43:36.439Z,7.56
2024-03-02T00:46:03.068Z,7.50
2024-03-02T00:48:32.686Z,7.51
2024-03-02T00:50:59.384Z,7.43
2024-03-02T00:53:27.475Z,7.36
2024-03-02T00:55:54.390Z,7.28
2024-03-02T00:58:21.033Z,7.21
2024-03-02T01:00:47.715Z,7.13
2024-03-02T01:03:14.365Z,7.00
2024-03-02T01:05:44.619Z,6.97
2024-03-02T01:08:11.980Z,6.87
2024-03-02T01:10:38.570Z,6.79
2024-03-02T01:13:05.169Z,6.68
2024-03-02T01:15:31.880Z,6.67
2024-03-02T01:17:58.665Z,6.61
2024-03-02T01:20:25.992Z,6.60
2024-03-02T01:22:53.332Z,6.48
2024-03-02T01:25:19.917Z,6.42
2024-03-02T01:27:50.241Z,6.41
2024-03-02T01:30:17.536Z,6.38
2024-03-02T01:32:44.406Z,6.40
2024-03-02T01:35:11.074Z,6.34
2024-03-02T01:37:37.660Z,6.33
2024-03-02T01:40:10.190Z,6.30
2024-03-02T01:42:38.342Z,6.29
2024-03-02T01:45:08.636Z,6.30
2024-03-02T01:47:36.196Z,6.29
2024-03-02T01:50:03.127Z,6.27
2024-03-02T01:52:30.605Z,6.22
2024-03-02T01:54:57.632Z,6.18
2024-03-02T01:57:24.460Z,6.18
2024-03-02T01:59:53.157Z,6.17
2024-03-02T02:02:21.205Z,6.16
2024-03-02T02:04:47.943Z,6.18
2024-03-02T02:07:15.721Z,6.20
2024-03-02T02:09:43.325Z,6.15
2024-03-02T02:12:11.296Z,6.18
2024-03-02T02:14:38.298Z,6.10
2024-03-02T02:17:05.027Z,6.13
2024-03-02T02:19:31.550Z,6.08
2024-03-02T02:21:58.146Z,6.00
2024-03-02T02:24:24.864Z,6.03
2024-03-02T02:26:51.419Z,6.00
2024-03-02T02:29:18.400Z,6.01
2024-03-02T02:31:45.114Z,6.02
2024-03-02T02:34:11.737Z,6.00
2024-03-02T02:36:41.069Z,5.94
2024-03-02T02:39:11.969Z,5.91
2024-03-02T02:41:39.710Z,5.86
2024-03-02T02:44:06.455Z,5.82
2024-03-02T02:46:33.044Z,5.82
2024-03-02T02:48:59.735Z,5.85
2024-03-02T02:51:29.005Z,5.83
2024-03-02T02:53:55.588Z,5.81
2024-03-02T02:56:22.192Z,5.78
2024-03-02T02:58:48.948Z,5.78
2024-03-02T03:01:19.212Z,5.82
2024-03-02T03:03:46.738Z,5.78
2024-03-02T03:06:13.594Z,5.74
2024-03-02T03:08:40.291Z,5.71
2024-03-02T03:11:07.138Z,5.66
2024-03-02T03:13:34.991Z,5.64
2024-03-02T03:16:01.720Z,5.57
2024-03-02T03:18:28.425Z,5.56
2024-03-02T03:20:55.085Z,5.58
2024-03-02T03:23:22.008Z,5.55
2024-03-02T03:25:48.656Z,5.55
2024-03-02T03:28:15.226Z,5.52
2024-03-02T03:30:42.219Z,5.49
2024-03-02T03:33:08.820Z,5.45
2024-03-02T03:35:36.040Z,5.37
2024-03-02T03:38:02.660Z,5.32
2024-03-02T03:40:29.247Z,5.22
2024-03-02T03:42:57.345Z,5.23
2024-03-02T03:45:24.010Z,5.17
2024-03-02T03:47:50.616Z,5.16
2024-03-02T03:50:17.562Z,5.12
2024-03-02T03:52:44.871Z,5.15
2024-03-02T03:55:11.522Z,5.11
2024-03-02T03:57:38.131Z,5.10
2024-03-02T04:00:05.549Z,5.11
2024-03-02T04:02:32.151Z,5.16
2024-03-02T04:04:58.772Z,5.15
2024-03-02T04:07:25.320Z,5.11
2024-03-02T04:09:51.910Z,5.16
2024-03-02T04:12:18.570Z,5.18
2024-03-02T04:14:45.224Z,5.22
2024-03-02T04:17:11.810Z,5.24
2024-03-02T04:19:38.395Z,5.20
2024-03-02T04:22:12.465Z,5.25
2024-03-02T04:24:45.280Z,5.27
2024-03-02T04:27:11.858Z,5.30
2024-03-02T04:29:38.424Z,5.35
2024-03-02T04:32:05.792Z,5.40
2024-03-02T04:34:32.359Z,5.50
2024-03-02T04:36:58.941Z,5.46
2024-03-02T04:39:26.121Z,5.53
2024-03-02T04:41:52.694Z,5.55
2024-03-02T04:44:19.254Z,5.59
2024-03-02T04:46:45.800Z,5.57
2024-03-02T04:49:12.482Z,5.58
2024-03-02T04:51:39.188Z,5.64
2024-03-02T04:54:05.911Z,5.65
2024-03-02T04:56:32.466Z,5.55
2024-03-02T04:58:58.997Z,5.47
2024-03-02T05:01:25.612Z,5.43
2024-03-02T05:03:52.319Z,5.33
2024-03-02T05:06:19.034Z,5.24
2024-03-02T05:08:46.152Z,5.29
2024-03-02T05:11:33.469Z,5.29
2024-03-02T05:14:00.050Z,5.29
2024-03-02T05:16:26.599Z,5.26
2024-03-02T05:18:53.261Z,5.22
2024-03-02T05:21:19.901Z,5.21
2024-03-02T05:23:46.774Z,5.22
2024-03-02T05:26:13.975Z,5.24
2024-03-02T05:28:40.657Z,5.25
2024-03-02T05:31:07.873Z,5.19
2024-03-02T05:33:34.601Z,5.18
2024-03-02T05:36:03.003Z,5.18
2024-03-02T05:38:29.612Z,5.11
2024-03-02T05:40:56.167Z,5.14
2024-03-02T05:43:22.759Z,5.06
2024-03-02T05:45:49.390Z,5.06
2024-03-02T05:48:18.349Z,5.05
2024-03-02T05:50:45.054Z,4.94
2024-03-02T05:53:14.573Z,4.86
2024-03-02T05:55:41.137Z,4.84
2024-03-02T05:58:07.663Z,4.74
2024-03-02T06:00:34.806Z,4.72
2024-03-02T06:03:01.563Z,4.67
2024-03-02T06:05:28.180Z,4.60
2024-03-02T06:07:54.840Z,4.58
2024-03-02T06:10:22.012Z,4.61
2024-03-02T06:12:48.694Z,4.54
2024-03-02T06:15:15.336Z,4.53
2024-03-02T06:17:42.011Z,4.51
2024-03-02T06:20:09.718Z,4.54
2024-03-02T06:22:36.558Z,4.56
2024-03-02T06:25:03.285Z,4.55
2024-03-02T06:27:29.876Z,4.55
2024-03-02T06:29:56.536Z,4.52
2024-03-02T06:32:24.200Z,4.53
2024-03-02T06:34:50.727Z,4.63
2024-03-02T06:37:17.476Z,4.57
2024-03-02T06:39:44.871Z,4.61
2024-03-02T06:42:11.434Z,4.73
2024-03-02T06:44:38.024Z,4.77
2024-03-02T06:47:05.386Z,4.84
2024-03-02T06:49:32.008Z,4.89
2024-03-02T06:51:58.570Z,4.91
2024-03-02T06:54:25.209Z,5.00
2024-03-02T06:56:54.485Z,5.02
2024-03-02T06:59:21.104Z,5.16
2024-03-02T07:01:47.681Z,5.23
2024-03-02T07:04:14.282Z,5.27
2024-03-02T07:06:40.982Z,5.28
2024-03-02T07:09:11.951Z,5.30
2024-03-02T07:11:38.545Z,5.38
2024-03-02T07:14:05.074Z,5.46
2024-03-02T07:16:34.227Z,5.51
2024-03-02T07:19:02.460Z,5.62
2024-03-02T07:21:29.250Z,5.60
2024-03-02T07:23:55.910Z,5.71
2024-03-02T07:28:53.020Z,5.95
2024-03-02T07:31:19.590Z,6.07
2024-03-02T07:33:47.564Z,6.14
2024-03-02T07:36:14.363Z,6.20
2024-03-02T07:38:41.698Z,6.29
2024-03-02T07:41:09.721Z,6.25
2024-03-02T07:43:36.333Z,6.35
2024-03-02T07:46:04.359Z,6.46
2024-03-02T07:48:32.122Z,6.48
2024-03-02T07:50:58.861Z,6.42
2024-03-02T07:53:25.437Z,6.28
2024-03-02T07:55:52.035Z,6.30
2024-03-02T07:58:20.635Z,6.23
2024-03-02T08:00:47.873Z,6.20
2024-03-02T08:03:16.161Z,6.23
2024-03-02T08:05:42.866Z,6.17
2024-03-02T08:08:09.556Z,6.15
2024-03-02T08:10:36.154Z,6.11
2024-03-02T08:13:03.026Z,6.05
2024-03-02T08:15:29.757Z,6.08
2024-03-02T08:17:57.600Z,6.07
2024-03-02T08:20:24.323Z,6.12
2024-03-02T08:22:51.051Z,6.14
2024-03-02T08:25:17.998Z,6.29
2024-03-02T08:27:44.626Z,6.32
2024-03-02T08:30:11.967Z,6.32
2024-03-02T08:32:38.617Z,6.40
2024-03-02T08:35:06.140Z,6.40
2024-03-02T08:37:32.828Z,6.41
2024-03-02T08:39:59.978Z,6.41
2024-03-02T08:42:26.841Z,6.45
2024-03-02T08:44:53.451Z,6.43
2024-03-02T08:47:20.102Z,6.74
2024-03-02T08:49:46.693Z,6.93
2024-03-02T08:52:14.103Z,6.87
2024-03-02T08:54:40.776Z,7.00
2024-03-02T08:57:08.434Z,7.12
2024-03-02T08:59:35.204Z,7.24
2024-03-02T09:02:01.910Z,7.28
2024-03-02T09:04:31.672Z,7.43
2024-03-02T09:07:00.565Z,7.41
2024-03-02T09:09:27.203Z,7.43
2024-03-02T09:11:56.195Z,7.43
2024-03-02T09:14:23.093Z,7.57
2024-03-02T09:16:52.182Z,7.45
2024-03-02T09:19:19.901Z,7.52
2024-03-02T09:21:46.524Z,7.66
2024-03-02T09:24:16.637Z,7.82
2024-03-02T09:26:45.057Z,7.81
2024-03-02T09:29:11.688Z,7.88
2024-03-02T09:31:44.650Z,7.97
2024-03-02T09:34:11.269Z,7.95
2024-03-02T09:36:37.879Z,7.95
2024-03-02T09:39:05.450Z,8.10
2024-03-02T09:41:34.063Z,8.00
2024-03-02T09:44:01.054Z,7.95
2024-03-02T09:46:27.643Z,8.05
2024-03-02T09:48:54.565Z,8.14
2024-03-02T09:51:21.439Z,8.15
2024-03-02T09:53:48.724Z,8.25
2024-03-02T09:56:16.950Z,8.40
2024-03-02T09:58:45.094Z,8.38
2024-03-02T10:01:11.958Z,8.44
2024-03-02T10:03:41.161Z,8.55
2024-03-02T10:06:25.638Z,8.60
2024-03-02T10:08:52.680Z,8.65
2024-03-02T10:11:35.148Z,8.72
2024-03-02T10:14:12.232Z,8.78
2024-03-02T10:16:44.565Z,8.86
2024-03-02T10:19:25.191Z,8.70
2024-03-02T10:21:53.720Z,8.87
2024-03-02T10:24:22.009Z,8.87
2024-03-02T10:26:49.473Z,8.85
2024-03-02T10:29:16.473Z,8.90
2024-03-02T10:31:44.874Z,8.93
2024-03-02T10:34:12.510Z,9.06
2024-03-02T10:36:42.657Z,9.11
2024-03-02T10:39:09.912Z,9.22
2024-03-02T10:41:38.289Z,9.24
2024-03-02T10:44:09.204Z,9.24
2024-03-02T10:46:37.938Z,9.26
2024-03-02T10:49:08.580Z,9.40
2024-03-02T10:51:37.812Z,9.37
2024-03-02T10:54:05.590Z,9.31
2024-03-02T10:56:33.039Z,9.39
2024-03-02T10:59:25.745Z,9.41
2024-03-02T11:02:05.026Z,9.53
2024-03-02T11:04:33.062Z,9.65
2024-03-02T11:07:07.501Z,9.64
2024-03-02T11:09:36.261Z,9.70
2024-03-02T11:12:30.544Z,9.72
2024-03-02T11:14:57.839Z,9.79
2024-03-02T11:17:26.298Z,9.81
2024-03-02T11:19:53.926Z,9.82
2024-03-02T11:22:21.714Z,9.91
2024-03-02T11:24:53.389Z,9.91
2024-03-02T11:27:49.311Z,9.86
2024-03-02T11:30:34.719Z,9.89
2024-03-02T11:33:09.559Z,9.96
2024-03-02T11:35:49.461Z,10.03
2024-03-02T11:38:16.196Z,10.05
2024-03-02T11:40:43.008Z,10.10
2024-03-02T11:43:10.570Z,10.05
2024-03-02T11:45:42.466Z,10.11
2024-03-02T11:48:13.701Z,10.17
2024-03-02T11:50:43.432Z,10.26
2024-03-02T11:53:11.759Z,10.21
2024-03-02T11:55:39.191Z,10.23
2024-03-02T11:58:06.209Z,10.24
2024-03-02T12:00:33.266Z,10.35
2024-03-02T12:03:10.475Z,10.36
2024-03-02T12:05:37.611Z,10.42
2024-03-02T12:08:06.147Z,10.45
2024-03-02T12:10:35.753Z,10.40
2024-03-02T12:13:12.281Z,10.47
2024-03-02T12:15:41.028Z,10.41
2024-03-02T12:18:07.900Z,10.41
2024-03-02T12:20:35.477Z,10.50
2024-03-02T12:23:04.087Z,10.57
2024-03-02T12:25:32.903Z,10.46
2024-03-02T12:28:02.183Z,10.49
2024-03-02T12:30:31.781Z,10.48
2024-03-02T12:32:58.441Z,10.82
2024-03-02T12:35:26.485Z,10.80
2024-03-02T12:37:54.389Z,10.68
2024-03-02T12:40:23.442Z,10.68
2024-03-02T12:42:50.749Z,10.73
2024-03-02T12:45:25.094Z,10.81
2024-03-02T12:47:53.066Z,10.85
2024-03-02T12:50:20.769Z,10.84
2024-03-02T12:52:55.066Z,10.83
2024-03-02T12:55:26.021Z,10.91
2024-03-02T12:57:54.234Z,11.04
2024-03-02T13:00:22.311Z,11.04
2024-03-02T13:02:52.760Z,11.04
2024-03-02T13:05:20.881Z,11.05
2024-03-02T13:07:51.397Z,11.00
2024-03-02T13:10:19.291Z,11.09
2024-03-02T13:12:46.353Z,11.20
2024-03-02T13:15:16.453Z,11.29
2024-03-02T13:17:46.979Z,11.18
2024-03-02T13:20:15.361Z,11.19
2024-03-02T13:22:42.321Z,11.15
2024-03-02T13:25:11.722Z,11.09
2024-03-02T13:27:38.603Z,11.24
2024-03-02T13:30:07.084Z,11.24
2024-03-02T13:32:33.964Z,11.12
2024-03-02T13:35:01.438Z,11.20
2024-03-02T13:37:28.192Z,10.99
2024-03-02T13:39:54.904Z,11.01
2024-03-02T13:42:21.566Z,11.09
2024-03-02T13:44:49.547Z,11.16
2024-03-02T13:47:16.571Z,11.05
2024-03-02T13:49:48.211Z,11.04
2024-03-02T13:52:16.237Z,11.07
2024-03-02T13:54:47.086Z,11.04
2024-03-02T13:57:13.865Z,11.16
2024-03-02T13:59:43.915Z,11.04
2024-03-02T14:02:12.324Z,10.95
2024-03-02T14:04:40.158Z,10.91
2024-03-02T14:07:10.102Z,10.78
2024-03-02T14:09:37.604Z,10.77
2024-03-02T14:12:05.813Z,10.71
2024-03-02T14:14:32.720Z,10.80
2024-03-02T14:17:05.511Z,10.74
2024-03-02T14:19:32.840Z,10.71
2024-03-02T14:22:00.903Z,10.62
2024-03-02T14:24:29.362Z,10.55
2024-03-02T14:27:05.460Z,10.53
2024-03-02T14:29:38.882Z,10.56
2024-03-02T14:32:06.124Z,10.63
2024-03-02T14:34:32.870Z,10.51
2024-03-02T14:37:00.018Z,10.51
2024-03-02T14:39:27.835Z,10.48
2024-03-02T14:41:56.075Z,10.57
2024-03-02T14:44:22.716Z,10.65
2024-03-02T14:46:49.491Z,10.69
2024-03-02T14:49:16.485Z,10.64
2024-03-02T14:51:43.119Z,10.61
2024-03-02T14:54:10.227Z,10.54
2024-03-02T14:56:36.794Z,10.55
2024-03-02T14:59:03.378Z,10.55
2024-03-02T15:01:30.112Z,10.57
2024-03-02T15:03:56.795Z,10.55
2024-03-02T15:06:23.729Z,10.57
2024-03-02T15:08:50.948Z,10.50
2024-03-02T15:11:17.586Z,10.33
2024-03-02T15:13:44.235Z,10.25
2024-03-02T15:16:10.957Z,10.17
2024-03-02T15:18:38.024Z,10.09
2024-03-02T15:21:05.123Z,10.18
2024-03-02T15:23:31.645Z,10.16
2024-03-02T15:25:58.365Z,10.19
2024-03-02T15:28:24.932Z,10.27
2024-03-02T15:30:53.450Z,10.39
2024-03-02T15:33:21.858Z,10.44
2024-03-02T15:35:48.510Z,10.43
2024-03-02T15:38:24.688Z,10.50
2024-03-02T15:40:58.944Z,10.37
2024-03-02T15:43:25.536Z,10.50
2024-03-02T15:45:52.230Z,10.56
2024-03-02T15:48:18.858Z,10.63
2024-03-02T15:50:45.489Z,10.42
2024-03-02T15:53:12.096Z,10.43
2024-03-02T15:55:38.658Z,10.35
2024-03-02T15:58:07.058Z,10.41
2024-03-02T16:00:33.775Z,10.32
2024-03-02T16:03:00.526Z,10.37
2024-03-02T16:05:27.066Z,10.39
2024-03-02T16:07:53.709Z,10.42
2024-03-02T16:10:20.309Z,10.34
2024-03-02T16:12:48.044Z,10.33
2024-03-02T16:15:15.447Z,10.29
2024-03-02T16:17:42.071Z,10.16
2024-03-02T16:20:09.157Z,10.19
2024-03-02T16:22:35.875Z,10.19
2024-03-02T16:25:02.694Z,10.15
2024-03-02T16:27:29.564Z,10.17
2024-03-02T16:29:57.489Z,10.14
2024-03-02T16:32:24.069Z,10.18
2024-03-02T16:34:50.724Z,9.97
2024-03-02T16:37:17.348Z,9.88
2024-03-02T16:39:44.473Z,9.84
2024-03-02T16:42:11.036Z,9.85
2024-03-02T16:44:37.596Z,9.72
2024-03-02T16:47:05.414Z,9.70
2024-03-02T16:49:31.931Z,9.71
2024-03-02T16:51:58.491Z,9.73
2024-03-02T16:54:25.176Z,9.86
2024-03-02T16:56:51.759Z,9.75
2024-03-02T16:59:18.391Z,9.80
2024-03-02T17:01:44.983Z,9.85
2024-03-02T17:04:11.773Z,9.87
2024-03-02T17:06:38.432Z,9.87
2024-03-02T17:09:05.042Z,9.81
2024-03-02T17:11:32.152Z,9.76
2024-03-02T17:13:59.272Z,9.77
2024-03-02T17:16:26.189Z,9.69
2024-03-02T17:18:53.708Z,9.73
2024-03-02T17:21:21.068Z,9.68
2024-03-02T17:23:48.256Z,9.61
2024-03-02T17:26:15.171Z,9.59
2024-03-02T17:28:42.436Z,9.72
2024-03-02T17:31:09.270Z,9.64
2024-03-02T17:33:36.130Z,9.58
2024-03-02T17:36:03.471Z,9.54
2024-03-02T17:38:30.091Z,9.52
2024-03-02T17:40:58.054Z,9.43
2024-03-02T17:43:24.763Z,9.33
2024-03-02T17:45:51.572Z,9.38
2024-03-02T17:48:18.311Z,9.31
2024-03-02T17:50:44.950Z,9.28
2024-03-02T17:53:11.567Z,9.24
2024-03-02T17:55:38.415Z,9.25
2024-03-02T17:58:05.208Z,9.24
2024-03-02T18:00:32.323Z,9.19
2024-03-02T18:02:59.012Z,9.22
2024-03-02T18:05:25.608Z,9.18
2024-03-02T18:07:52.219Z,9.17
2024-03-02T18:10:18.963Z,9.25
2024-03-02T18:12:46.838Z,9.28
2024-03-02T18:15:13.434Z,9.19
2024-03-02T18:17:40.035Z,9.06
2024-03-02T18:20:07.399Z,9.08
2024-03-02T18:22:35.814Z,9.29
2024-03-02T18:25:03.015Z,9.30
2024-03-02T18:27:29.870Z,9.48
2024-03-02T18:29:56.949Z,9.57
2024-03-02T18:32:23.917Z,9.63
2024-03-02T18:34:50.582Z,9.71
2024-03-02T18:37:18.145Z,9.76
2024-03-02T18:39:48.577Z,9.75
2024-03-02T18:42:16.423Z,9.70
2024-03-02T18:44:43.627Z,9.71
2024-03-02T18:47:12.166Z,9.87
2024-03-02T18:49:45.916Z,10.01
2024-03-02T18:52:15.479Z,9.93
2024-03-02T18:54:42.665Z,9.86
2024-03-02T18:57:10.775Z,9.94
2024-03-02T18:59:37.595Z,9.87
2024-03-02T19:02:04.786Z,9.84
2024-03-02T19:04:31.647Z,9.81
2024-03-02T19:06:58.498Z,9.80
2024-03-02T19:09:25.178Z,9.69
2024-03-02T19:11:51.746Z,9.64
2024-03-02T19:14:18.267Z,9.57
2024-03-02T19:16:45.356Z,9.59
2024-03-02T19:19:12.057Z,9.75
2024-03-02T19:21:38.750Z,9.80
2024-03-02T19:24:05.471Z,9.88
2024-03-02T19:26:32.026Z,9.83
2024-03-02T19:28:58.601Z,9.79
2024-03-02T19:31:25.240Z,9.62
2024-03-02T19:33:52.732Z,9.68
2024-03-02T19:36:20.180Z,9.56
2024-03-02T19:38:46.839Z,9.49
2024-03-02T19:41:13.407Z,9.41
2024-03-02T19:43:39.940Z,9.29
2024-03-02T19:46:06.521Z,9.37
2024-03-02T19:48:33.174Z,9.39
2024-03-02T19:50:59.787Z,9.48
2024-03-02T19:53:26.776Z,9.63
2024-03-02T19:55:53.432Z,9.49
2024-03-02T19:58:20.367Z,9.51
2024-03-02T20:00:47.146Z,9.62
2024-03-02T20:03:15.171Z,9.46
2024-03-02T20:05:41.797Z,9.41
2024-03-02T20:08:11.277Z,9.55
2024-03-02T20:10:38.452Z,9.40
2024-03-02T20:13:07.151Z,9.35
2024-03-02T20:15:34.140Z,9.34
2024-03-02T20:18:01.430Z,9.37
2024-03-02T20:20:28.205Z,9.34
2024-03-02T20:22:54.800Z,9.36
2024-03-02T20:25:21.489Z,9.30
2024-03-02T20:27:48.190Z,9.32
2024-03-02T20:30:14.914Z,9.29
2024-03-02T20:32:41.635Z,9.28
2024-03-02T20:35:08.675Z,9.19
2024-03-02T20:37:35.300Z,9.16
2024-03-02T20:40:02.115Z,9.15
2024-03-02T20:42:28.898Z,9.26
2024-03-02T20:44:55.508Z,9.24
2024-03-02T20:47:23.851Z,9.26
2024-03-02T20:49:52.161Z,9.18
2024-03-02T20:52:19.347Z,9.21
2024-03-02T20:54:46.653Z,9.13
2024-03-02T20:57:13.834Z,9.24
2024-03-02T20:59:40.703Z,9.21
2024-03-02T21:02:07.689Z,9.17
2024-03-02T21:04:34.448Z,9.18
2024-03-02T21:07:01.130Z,9.11
2024-03-02T21:09:27.807Z,9.11
2024-03-02T21:11:54.512Z,9.06
2024-03-02T21:14:21.075Z,8.99
2024-03-02T21:16:50.628Z,9.01
2024-03-02T21:19:17.894Z,8.94
2024-03-02T21:21:44.698Z,8.90
2024-03-02T21:24:11.337Z,8.87
2024-03-02T21:26:39.282Z,8.81
2024-03-02T21:29:05.924Z,8.78
2024-03-02T21:31:32.518Z,8.75
2024-03-02T21:33:59.167Z,8.83
2024-03-02T21:36:25.749Z,8.84
2024-03-02T21:38:52.446Z,8.84
2024-03-02T21:41:19.102Z,8.94
2024-03-02T21:43:45.805Z,8.87
2024-03-02T21:46:13.623Z,8.76
2024-03-02T21:48:40.312Z,8.92
2024-03-02T21:51:07.005Z,9.07
2024-03-02T21:53:34.425Z,8.91
2024-03-02T21:56:01.055Z,9.05
2024-03-02T21:58:27.625Z,8.98
2024-03-02T22:00:54.228Z,8.91
2024-03-02T22:03:20.848Z,9.04
2024-03-02T22:05:47.397Z,9.00
2024-03-02T22:08:13.938Z,9.12
2024-03-02T22:10:40.492Z,9.08
2024-03-02T22:13:07.132Z,9.43
2024-03-02T22:15:33.925Z,9.40
2024-03-02T22:18:04.141Z,9.41
2024-03-02T22:20:30.859Z,9.47
2024-03-02T22:22:58.575Z,9.51
2024-03-02T22:25:28.242Z,9.59
2024-03-02T22:27:57.710Z,9.62
2024-03-02T22:30:24.495Z,9.62
2024-03-02T22:32:52.097Z,9.68
2024-03-02T22:35:21.212Z,9.51
2024-03-02T22:37:49.033Z,9.47
2024-03-02T22:40:15.801Z,9.46
2024-03-02T22:42:42.408Z,9.52
2024-03-02T22:45:09.418Z,9.59
2024-03-02T22:47:36.080Z,9.64
2024-03-02T22:50:02.921Z,9.70
2024-03-02T22:52:29.525Z,9.80
2024-03-02T22:54:57.232Z,9.83
2024-03-02T22:57:23.796Z,9.87
2024-03-02T22:59:51.275Z,9.73
2024-03-02T23:02:18.796Z,9.85
2024-03-02T23:04:45.628Z,9.90
2024-03-02T23:07:12.262Z,9.92
2024-03-02T23:09:38.989Z,9.85
2024-03-02T23:12:05.834Z,9.78
2024-03-02T23:14:32.420Z,9.90
2024-03-02T23:16:58.961Z,9.94
2024-03-02T23:19:25.506Z,9.84
2024-03-02T23:21:52.443Z,9.91
2024-03-02T23:24:19.259Z,9.94
2024-03-02T23:26:45.827Z,9.89
2024-03-02T23:29:12.482Z,9.99
2024-03-02T23:31:39.063Z,9.89
2024-03-02T23:34:06.452Z,9.96
2024-03-02T23:36:34.038Z,9.93
2024-03-02T23:39:05.577Z,9.89
2024-03-02T23:41:32.627Z,9.92
2024-03-02T23:44:02.270Z,10.02
2024-03-02T23:46:30.015Z,10.00
2024-03-02T23:48:57.005Z,9.95
2024-03-02T23:51:23.965Z,9.98
2024-03-02T23:53:50.694Z,10.01
2024-03-02T23:56:17.536Z,9.98
2024-03-02T23:58:45.922Z,9.90
